createdAt,value
2022-10-01T00:01:09.266Z,17.34
2022-10-01T00:03:48.032Z,17.33
2022-10-01T00:06:20.226Z,17.32
2022-10-01T00:08:50.109Z,17.36
2022-10-01T00:11:21.565Z,17.35
2022-10-01T00:13:51.503Z,17.32
2022-10-01T00:16:22.318Z,17.34
2022-10-01T00:18:53.061Z,17.35
2022-10-01T00:21:23.534Z,17.32
2022-10-01T00:23:55.636Z,17.29
2022-10-01T00:26:31.444Z,17.28
2022-10-01T00:29:04.276Z,17.30
2022-10-01T00:31:35.120Z,17.34
2022-10-01T00:34:04.666Z,17.33
2022-10-01T00:36:35.157Z,17.35
2022-10-01T00:39:07.457Z,17.33
2022-10-01T00:41:37.567Z,17.32
2022-10-01T00:44:28.220Z,17.33
2022-10-01T00:47:01.643Z,17.33
2022-10-01T00:49:33.326Z,17.33
2022-10-01T00:52:04.767Z,17.29
2022-10-01T00:54:37.622Z,17.26
2022-10-01T00:57:09.115Z,17.20
2022-10-01T00:59:38.661Z,17.14
2022-10-01T01:02:07.711Z,17.12
2022-10-01T01:04:39.469Z,17.13
2022-10-01T01:07:10.240Z,17.14
2022-10-01T01:09:41.311Z,17.11
2022-10-01T01:12:17.570Z,17.07
2022-10-01T01:14:54.258Z,17.05
2022-10-01T01:17:24.666Z,17.00
2022-10-01T01:20:05.023Z,16.97
2022-10-01T01:22:36.628Z,16.95
2022-10-01T01:25:10.982Z,16.98
2022-10-01T01:27:42.872Z,16.95
2022-10-01T01:30:13.771Z,16.93
2022-10-01T01:32:50.181Z,16.92
2022-10-01T01:35:24.415Z,16.92
2022-10-01T01:37:56.740Z,16.91
2022-10-01T01:40:26.268Z,16.88
2022-10-01T01:42:56.432Z,16.88
2022-10-01T01:45:28.942Z,16.88
2022-10-01T01:47:59.668Z,16.90
2022-10-01T01:50:34.522Z,16.91
2022-10-01T01:53:03.058Z,16.94
2022-10-01T01:55:32.505Z,16.93
2022-10-01T01:58:01.621Z,16.94
2022-10-01T02:00:30.469Z,16.95
2022-10-01T02:02:59.109Z,16.92
2022-10-01T02:05:41.687Z,16.90
2022-10-01T02:08:25.910Z,16.86
2022-10-01T02:11:16.734Z,16.85
2022-10-01T02:13:51.572Z,16.88
2022-10-01T02:16:25.368Z,16.88
2022-10-01T02:18:59.235Z,16.86
2022-10-01T02:21:33.388Z,16.82
2022-10-01T02:24:08.862Z,16.77
2022-10-01T02:26:40.118Z,16.75
2022-10-01T02:29:12.576Z,16.69
2022-10-01T02:31:42.435Z,16.65
2022-10-01T02:34:19.956Z,16.62
2022-10-01T02:36:50.064Z,16.57
2022-10-01T02:39:21.244Z,16.53
2022-10-01T02:41:53.367Z,16.45
2022-10-01T02:44:29.664Z,16.45
2022-10-01T02:47:07.217Z,16.45
2022-10-01T02:49:39.494Z,16.43
2022-10-01T02:52:13.023Z,16.41
2022-10-01T02:54:46.998Z,16.37
2022-10-01T02:57:22.922Z,16.29
2022-10-01T02:59:57.686Z,16.23
2022-10-01T03:02:28.216Z,16.22
2022-10-01T03:04:59.178Z,16.22
2022-10-01T03:07:30.611Z,16.22
2022-10-01T03:10:02.294Z,16.16
2022-10-01T03:12:32.757Z,16.13
2022-10-01T03:15:03.390Z,16.09
2022-10-01T03:17:32.549Z,16.07
2022-10-01T03:20:03.461Z,16.06
2022-10-01T03:22:33.029Z,16.07
2022-10-01T03:25:03.354Z,16.08
2022-10-01T03:27:34.408Z,16.06
2022-10-01T03:30:08.084Z,16.04
2022-10-01T03:32:37.578Z,16.00
2022-10-01T03:35:09.287Z,15.99
2022-10-01T03:37:39.349Z,15.94
2022-10-01T03:40:10.403Z,15.86
2022-10-01T03:42:39.658Z,15.79
2022-10-01T03:45:10.686Z,15.75
2022-10-01T03:47:39.351Z,15.71
2022-10-01T03:50:10.209Z,15.66
2022-10-01T03:52:38.871Z,15.64
2022-10-01T03:55:09.584Z,15.60
2022-10-01T03:57:40.225Z,15.54
2022-10-01T04:00:13.455Z,15.47
2022-10-01T04:02:42.292Z,15.43
2022-10-01T04:05:11.804Z,15.39
2022-10-01T04:07:42.543Z,15.31
2022-10-01T04:10:13.476Z,15.25
2022-10-01T04:12:43.691Z,15.21
2022-10-01T04:15:14.731Z,15.13
2022-10-01T04:17:46.059Z,15.08
2022-10-01T04:20:17.529Z,15.06
2022-10-01T04:22:46.653Z,15.02
2022-10-01T04:25:15.847Z,14.97
2022-10-01T04:27:56.584Z,14.94
2022-10-01T04:30:26.224Z,14.89
2022-10-01T04:32:55.817Z,14.80
2022-10-01T04:35:24.665Z,14.74
2022-10-01T04:38:05.855Z,14.69
2022-10-01T04:40:36.738Z,14.65
2022-10-01T04:43:07.844Z,14.66
2022-10-01T04:45:36.462Z,14.65
2022-10-01T04:48:08.313Z,14.67
2022-10-01T04:50:37.372Z,14.66
2022-10-01T04:53:07.829Z,14.69
2022-10-01T04:55:36.399Z,14.73
2022-10-01T04:58:05.075Z,14.72
2022-10-01T05:00:34.699Z,14.72
2022-10-01T05:03:03.367Z,14.75
2022-10-01T05:05:34.691Z,14.79
2022-10-01T05:08:06.246Z,14.81
2022-10-01T05:10:36.833Z,14.85
2022-10-01T05:13:05.533Z,14.94
2022-10-01T05:15:36.239Z,15.00
2022-10-01T05:18:04.776Z,15.07
2022-10-01T05:20:34.084Z,15.12
2022-10-01T05:23:05.070Z,15.16
2022-10-01T05:25:34.263Z,15.22
2022-10-01T05:28:04.729Z,15.29
2022-10-01T05:30:34.030Z,15.38
2022-10-01T05:33:04.414Z,15.43
2022-10-01T05:35:35.780Z,15.49
2022-10-01T05:38:04.256Z,15.58
2022-10-01T05:40:33.540Z,15.62
2022-10-01T05:43:03.951Z,15.62
2022-10-01T05:45:32.961Z,15.67
2022-10-01T05:48:06.088Z,15.76
2022-10-01T05:50:38.624Z,15.82
2022-10-01T05:53:10.009Z,15.88
2022-10-01T05:55:38.821Z,15.92
2022-10-01T05:58:10.150Z,15.95
2022-10-01T06:00:41.247Z,16.00
2022-10-01T06:03:12.666Z,16.03
2022-10-01T06:05:43.632Z,16.07
2022-10-01T06:08:14.992Z,16.17
2022-10-01T06:10:44.698Z,16.23
2022-10-01T06:13:18.088Z,16.30
2022-10-01T06:15:46.983Z,16.33
2022-10-01T06:18:17.739Z,16.41
2022-10-01T06:20:47.942Z,16.46
2022-10-01T06:23:18.798Z,16.51
2022-10-01T06:25:47.358Z,16.60
2022-10-01T06:28:20.007Z,16.64
2022-10-01T06:30:49.235Z,16.70
2022-10-01T06:33:19.254Z,16.79
2022-10-01T06:35:49.711Z,16.89
2022-10-01T06:38:20.529Z,16.98
2022-10-01T06:40:53.916Z,17.02
2022-10-01T06:43:23.378Z,17.06
2022-10-01T06:45:53.212Z,17.13
2022-10-01T06:48:23.998Z,17.16
2022-10-01T06:50:55.425Z,17.20
2022-10-01T06:53:24.411Z,17.27
2022-10-01T06:55:55.776Z,17.35
2022-10-01T06:58:26.352Z,17.45
2022-10-01T07:01:00.739Z,17.47
2022-10-01T07:03:32.780Z,17.51
2022-10-01T07:06:09.178Z,17.61
2022-10-01T07:08:39.915Z,17.67
2022-10-01T07:11:10.822Z,17.75
2022-10-01T07:13:40.526Z,17.80
2022-10-01T07:16:09.263Z,17.81
2022-10-01T07:18:40.299Z,17.82
2022-10-01T07:21:10.504Z,17.83
2022-10-01T07:23:39.113Z,17.86
2022-10-01T07:26:08.912Z,17.92
2022-10-01T07:28:40.306Z,18.02
2022-10-01T07:31:10.853Z,18.07
2022-10-01T07:33:39.524Z,18.22
2022-10-01T07:36:09.465Z,18.29
2022-10-01T07:38:37.919Z,18.34
2022-10-01T07:41:07.002Z,18.38
2022-10-01T07:43:36.010Z,18.49
2022-10-01T07:46:07.219Z,18.56
2022-10-01T07:48:36.235Z,18.60
2022-10-01T07:51:06.208Z,18.65
2022-10-01T07:53:35.785Z,18.72
2022-10-01T07:56:06.408Z,18.80
2022-10-01T07:58:35.984Z,18.90
2022-10-01T08:01:06.611Z,18.95
2022-10-01T08:03:35.353Z,18.95
2022-10-01T08:06:06.302Z,19.01
2022-10-01T08:08:35.627Z,19.08
2022-10-01T08:11:07.178Z,19.17
2022-10-01T08:13:37.358Z,19.28
2022-10-01T08:16:09.018Z,19.38
2022-10-01T08:18:40.110Z,19.51
2022-10-01T08:21:10.528Z,19.62
2022-10-01T08:23:39.561Z,19.74
2022-10-01T08:26:11.037Z,19.77
2022-10-01T08:28:40.769Z,19.82
2022-10-01T08:31:10.288Z,19.84
2022-10-01T08:33:40.153Z,19.91
2022-10-01T08:36:08.959Z,20.02
2022-10-01T08:38:39.905Z,20.10
2022-10-01T08:41:23.421Z,20.25
2022-10-01T08:43:53.031Z,20.46
2022-10-01T08:46:25.510Z,20.66
2022-10-01T08:49:03.997Z,20.82
2022-10-01T08:51:39.992Z,20.93
2022-10-01T08:54:15.559Z,20.97
2022-10-01T08:56:46.947Z,20.93
2022-10-01T08:59:27.306Z,20.87
2022-10-01T09:02:01.177Z,20.85
2022-10-01T09:04:31.124Z,20.88
2022-10-01T09:07:08.545Z,20.89
2022-10-01T09:09:44.604Z,20.88
2022-10-01T09:12:25.759Z,20.91
2022-10-01T09:15:06.415Z,20.99
2022-10-01T09:17:45.858Z,21.09
2022-10-01T09:20:22.123Z,21.15
2022-10-01T09:22:56.842Z,21.22
2022-10-01T09:25:27.280Z,21.33
2022-10-01T09:28:02.966Z,21.41
2022-10-01T09:30:32.711Z,21.45
2022-10-01T09:33:05.452Z,21.50
2022-10-01T09:35:41.225Z,21.49
2022-10-01T09:38:15.758Z,21.50
2022-10-01T09:40:52.470Z,21.48
2022-10-01T09:43:22.781Z,21.49
2022-10-01T09:45:52.218Z,21.56
2022-10-01T09:48:26.973Z,21.67
2022-10-01T09:50:59.434Z,21.79
2022-10-01T09:53:34.772Z,21.81
2022-10-01T09:56:09.252Z,21.78
2022-10-01T09:58:40.662Z,21.66
2022-10-01T10:01:18.612Z,21.47
2022-10-01T10:03:56.422Z,21.37
2022-10-01T10:06:27.686Z,21.27
2022-10-01T10:08:59.747Z,21.17
2022-10-01T10:11:30.803Z,21.13
2022-10-01T10:14:00.972Z,21.13
2022-10-01T10:16:34.569Z,21.09
2022-10-01T10:19:09.740Z,21.11
2022-10-01T10:21:38.539Z,21.24
2022-10-01T10:24:26.079Z,21.38
2022-10-01T10:26:57.872Z,21.47
2022-10-01T10:29:29.851Z,21.50
2022-10-01T10:32:02.969Z,21.55
2022-10-01T10:34:35.387Z,21.66
2022-10-01T10:37:10.885Z,21.77
2022-10-01T10:39:41.997Z,21.96
2022-10-01T10:42:16.234Z,22.12
2022-10-01T10:44:46.984Z,22.23
2022-10-01T10:47:19.712Z,22.31
2022-10-01T10:49:50.870Z,22.41
2022-10-01T10:52:23.007Z,22.43
2022-10-01T10:54:52.707Z,22.36
2022-10-01T10:57:27.098Z,22.25
2022-10-01T11:00:02.699Z,22.21
2022-10-01T11:02:33.182Z,22.20
2022-10-01T11:05:04.333Z,22.20
2022-10-01T11:07:35.142Z,22.21
2022-10-01T11:10:22.229Z,22.17
2022-10-01T11:13:03.386Z,22.19
2022-10-01T11:15:48.580Z,22.20
2022-10-01T11:18:30.106Z,22.32
2022-10-01T11:21:12.449Z,22.49
2022-10-01T11:23:53.320Z,22.60
2022-10-01T11:26:26.598Z,22.74
2022-10-01T11:29:07.287Z,22.79
2022-10-01T11:31:41.981Z,22.97
2022-10-01T11:34:38.881Z,23.10
2022-10-01T11:37:17.223Z,23.31
2022-10-01T11:39:47.313Z,23.45
2022-10-01T11:42:21.498Z,23.53
2022-10-01T11:45:00.548Z,23.65
2022-10-01T11:47:34.203Z,23.76
2022-10-01T11:50:04.946Z,23.81
2022-10-01T11:52:38.098Z,23.77
2022-10-01T11:55:32.168Z,23.60
2022-10-01T11:58:23.238Z,23.50
2022-10-01T12:00:58.095Z,23.48
2022-10-01T12:03:32.902Z,23.43
2022-10-01T12:06:02.785Z,23.42
2022-10-01T12:08:33.500Z,23.45
2022-10-01T12:11:15.792Z,23.47
2022-10-01T12:13:54.560Z,23.41
2022-10-01T12:16:31.069Z,23.38
2022-10-01T12:19:04.100Z,23.36
2022-10-01T12:21:39.627Z,23.29
2022-10-01T12:24:15.116Z,23.21
2022-10-01T12:26:53.727Z,23.09
2022-10-01T12:29:26.328Z,22.96
2022-10-01T12:32:00.157Z,22.91
2022-10-01T12:34:36.111Z,22.93
2022-10-01T12:37:15.851Z,22.82
2022-10-01T12:39:53.967Z,22.69
2022-10-01T12:42:47.347Z,22.66
2022-10-01T12:45:25.497Z,22.65
2022-10-01T12:48:02.692Z,22.60
2022-10-01T12:50:39.045Z,22.58
2022-10-01T12:53:20.239Z,22.53
2022-10-01T12:55:57.009Z,22.42
2022-10-01T12:58:57.301Z,22.32
2022-10-01T13:01:40.558Z,22.15
2022-10-01T13:04:26.157Z,22.12
2022-10-01T13:07:07.695Z,22.18
2022-10-01T13:09:46.588Z,22.30
2022-10-01T13:12:32.419Z,22.40
2022-10-01T13:15:02.047Z,22.40
2022-10-01T13:17:36.515Z,22.36
2022-10-01T13:20:12.188Z,22.33
2022-10-01T13:22:45.392Z,22.26
2022-10-01T13:25:27.133Z,22.18
2022-10-01T13:28:03.676Z,22.15
2022-10-01T13:30:41.397Z,22.13
2022-10-01T13:33:23.996Z,22.17
2022-10-01T13:35:58.180Z,22.11
2022-10-01T13:38:43.294Z,22.12
2022-10-01T13:41:20.991Z,22.07
2022-10-01T13:43:59.409Z,22.02
2022-10-01T13:46:33.388Z,22.05
2022-10-01T13:49:07.199Z,22.06
2022-10-01T13:51:41.352Z,22.05
2022-10-01T13:54:24.046Z,22.01
2022-10-01T13:57:07.459Z,21.89
2022-10-01T13:59:39.117Z,21.82
2022-10-01T14:02:28.893Z,21.75
2022-10-01T14:05:08.160Z,21.61
2022-10-01T14:07:39.385Z,21.50
2022-10-01T14:10:13.505Z,21.43
2022-10-01T14:13:05.385Z,21.38
2022-10-01T14:16:02.893Z,21.37
2022-10-01T14:18:36.622Z,21.30
2022-10-01T14:21:18.094Z,21.25
2022-10-01T14:23:53.558Z,21.29
2022-10-01T14:26:29.290Z,21.27
2022-10-01T14:29:06.461Z,21.31
2022-10-01T14:31:47.434Z,21.33
2022-10-01T14:34:43.663Z,21.38
2022-10-01T14:37:17.365Z,21.52
2022-10-01T14:39:46.893Z,21.56
2022-10-01T14:42:18.129Z,21.52
2022-10-01T14:44:47.742Z,21.50
2022-10-01T14:47:20.573Z,21.48
2022-10-01T14:49:51.876Z,21.48
2022-10-01T14:52:25.369Z,21.48
2022-10-01T14:54:59.618Z,21.46
2022-10-01T14:57:30.551Z,21.46
2022-10-01T15:00:07.499Z,21.48
2022-10-01T15:02:46.296Z,21.50
2022-10-01T15:05:25.047Z,21.47
2022-10-01T15:07:56.659Z,21.47
2022-10-01T15:10:27.037Z,21.44
2022-10-01T15:12:56.976Z,21.45
2022-10-01T15:15:31.974Z,21.45
2022-10-01T15:18:03.115Z,21.43
2022-10-01T15:20:34.564Z,21.42
2022-10-01T15:23:07.365Z,21.40
2022-10-01T15:25:37.360Z,21.33
2022-10-01T15:28:29.606Z,21.26
2022-10-01T15:31:04.779Z,21.13
2022-10-01T15:33:35.537Z,21.03
2022-10-01T15:36:06.479Z,20.95
2022-10-01T15:38:36.906Z,20.85
2022-10-01T15:41:30.008Z,20.79
2022-10-01T15:43:57.979Z,20.69
2022-10-01T15:46:34.209Z,20.61
2022-10-01T15:49:17.323Z,20.52
2022-10-01T15:52:07.288Z,20.44
2022-10-01T15:54:37.718Z,20.41
2022-10-01T15:57:08.809Z,20.33
2022-10-01T15:59:40.796Z,20.27
2022-10-01T16:02:18.011Z,20.18
2022-10-01T16:04:50.506Z,20.11
2022-10-01T16:07:29.721Z,20.02
2022-10-01T16:10:14.744Z,19.94
2022-10-01T16:12:44.620Z,19.85
2022-10-01T16:15:26.115Z,19.80
2022-10-01T16:17:57.534Z,19.74
2022-10-01T16:20:37.976Z,19.69
2022-10-01T16:23:35.506Z,19.61
2022-10-01T16:26:11.962Z,19.52
2022-10-01T16:28:41.049Z,19.48
2022-10-01T16:31:09.775Z,19.39
2022-10-01T16:33:38.346Z,19.36
2022-10-01T16:36:13.998Z,19.34
2022-10-01T16:38:45.196Z,19.32
2022-10-01T16:41:19.120Z,19.28
2022-10-01T16:43:50.163Z,19.25
2022-10-01T16:46:19.912Z,19.25
2022-10-01T16:48:51.163Z,19.24
2022-10-01T16:51:20.019Z,19.23
2022-10-01T16:53:54.807Z,19.20
2022-10-01T16:56:27.336Z,19.15
2022-10-01T16:58:57.280Z,19.14
2022-10-01T17:01:32.675Z,19.07
2022-10-01T17:04:02.718Z,19.03
2022-10-01T17:06:33.428Z,19.00
2022-10-01T17:09:04.572Z,18.98
2022-10-01T17:11:35.549Z,18.99
2022-10-01T17:14:08.290Z,18.96
2022-10-01T17:16:37.439Z,18.95
2022-10-01T17:19:08.170Z,18.94
2022-10-01T17:21:38.716Z,18.93
2022-10-01T17:24:10.411Z,18.91
2022-10-01T17:26:42.315Z,18.88
2022-10-01T17:29:12.955Z,18.87
2022-10-01T17:31:50.012Z,18.88
2022-10-01T17:34:20.589Z,18.91
2022-10-01T17:36:51.291Z,18.86
2022-10-01T17:39:21.939Z,18.84
2022-10-01T17:41:51.640Z,18.81
2022-10-01T17:44:22.856Z,18.78
2022-10-01T17:46:53.342Z,18.80
2022-10-01T17:49:23.763Z,18.78
2022-10-01T17:51:53.811Z,18.76
2022-10-01T17:54:23.397Z,18.74
2022-10-01T17:56:54.321Z,18.75
2022-10-01T17:59:23.685Z,18.76
2022-10-01T18:01:54.092Z,18.78
2022-10-01T18:04:25.069Z,18.77
2022-10-01T18:06:59.068Z,18.78
2022-10-01T18:09:32.440Z,18.75
2022-10-01T18:12:02.902Z,18.76
2022-10-01T18:14:32.687Z,18.75
2022-10-01T18:17:02.830Z,18.72
2022-10-01T18:22:23.550Z,18.69
2022-10-01T18:24:52.303Z,18.67
2022-10-01T18:27:24.042Z,18.63
2022-10-01T18:29:54.927Z,18.64
2022-10-01T18:32:25.194Z,18.62
2022-10-01T18:34:58.358Z,18.61
2022-10-01T18:37:39.071Z,18.61
2022-10-01T18:40:15.218Z,18.55
2022-10-01T18:42:48.981Z,18.36
2022-10-01T18:45:21.313Z,18.18
2022-10-01T18:48:03.967Z,18.05
2022-10-01T18:50:40.608Z,17.87
2022-10-01T18:53:26.354Z,17.76
2022-10-01T18:56:20.057Z,17.60
2022-10-01T18:59:21.802Z,17.44
2022-10-01T19:02:02.558Z,17.30
2022-10-01T19:04:52.994Z,17.20
2022-10-01T19:07:33.603Z,17.16
2022-10-01T19:10:10.135Z,17.11
2022-10-01T19:12:50.137Z,17.03
2022-10-01T19:15:30.991Z,16.93
2022-10-01T19:18:14.693Z,16.84
2022-10-01T19:21:04.281Z,16.81
2022-10-01T19:24:09.259Z,16.77
2022-10-01T19:26:43.090Z,16.70
2022-10-01T19:29:25.189Z,16.68
2022-10-01T19:31:58.957Z,16.65
2022-10-01T19:34:33.182Z,16.59
2022-10-01T19:37:10.482Z,16.54
2022-10-01T19:39:42.845Z,16.48
2022-10-01T19:42:16.857Z,16.43
2022-10-01T19:44:55.533Z,16.47
2022-10-01T19:47:31.715Z,16.45
2022-10-01T19:50:06.741Z,16.43
2022-10-01T19:52:38.023Z,16.43
2022-10-01T19:55:16.730Z,16.44
2022-10-01T19:57:48.045Z,16.41
2022-10-01T20:00:21.106Z,16.42
2022-10-01T20:02:56.652Z,16.44
2022-10-01T20:05:29.153Z,16.42
2022-10-01T20:08:06.501Z,16.37
2022-10-01T20:10:39.184Z,16.34
2022-10-01T20:13:22.243Z,16.34
2022-10-01T20:15:58.595Z,16.30
2022-10-01T20:18:32.337Z,16.25
2022-10-01T20:21:13.966Z,16.20
2022-10-01T20:23:46.847Z,16.18
2022-10-01T20:26:26.617Z,16.17
2022-10-01T20:29:18.742Z,16.16
2022-10-01T20:31:55.176Z,16.12
2022-10-01T20:34:31.935Z,16.10
2022-10-01T20:37:13.744Z,16.09
2022-10-01T20:39:48.476Z,16.09
2022-10-01T20:42:24.911Z,16.09
2022-10-01T20:44:55.064Z,16.10
2022-10-01T20:47:31.174Z,16.09
2022-10-01T20:50:09.125Z,16.09
2022-10-01T20:52:44.229Z,16.08
2022-10-01T20:55:18.639Z,16.09
2022-10-01T20:57:52.065Z,16.07
2022-10-01T21:00:23.043Z,16.01
2022-10-01T21:02:59.639Z,15.99
2022-10-01T21:05:32.587Z,15.98
2022-10-01T21:08:06.191Z,15.97
2022-10-01T21:10:39.691Z,15.97
2022-10-01T21:13:16.203Z,16.01
2022-10-01T21:15:54.275Z,15.99
2022-10-01T21:18:34.327Z,15.99
2022-10-01T21:21:11.333Z,16.00
2022-10-01T21:23:48.958Z,16.01
2022-10-01T21:26:24.903Z,16.03
2022-10-01T21:29:22.134Z,16.02
2022-10-01T21:32:01.039Z,16.01
2022-10-01T21:34:34.471Z,15.99
2022-10-01T21:37:10.401Z,15.97
2022-10-01T21:39:46.605Z,15.95
2022-10-01T21:42:17.300Z,15.95
2022-10-01T21:45:06.524Z,15.97
2022-10-01T21:47:54.039Z,15.99
2022-10-01T21:50:35.743Z,16.00
2022-10-01T21:53:16.089Z,16.02
2022-10-01T21:56:09.590Z,16.02
2022-10-01T21:58:50.959Z,16.04
2022-10-01T22:01:27.651Z,16.06
2022-10-01T22:04:01.472Z,16.09
2022-10-01T22:06:35.538Z,16.11
2022-10-01T22:09:08.978Z,16.13
2022-10-01T22:11:42.166Z,16.15
2022-10-01T22:14:16.279Z,16.19
2022-10-01T22:16:49.883Z,16.21
2022-10-01T22:19:22.798Z,16.23
2022-10-01T22:21:56.360Z,16.24
2022-10-01T22:24:30.659Z,16.24
2022-10-01T22:27:05.098Z,16.27
2022-10-01T22:29:42.708Z,16.29
2022-10-01T22:32:15.558Z,16.31
2022-10-01T22:34:46.828Z,16.23
2022-10-01T22:37:20.568Z,16.21
2022-10-01T22:39:55.104Z,16.22
2022-10-01T22:42:29.767Z,16.18
2022-10-01T22:45:06.686Z,16.18
2022-10-01T22:48:04.717Z,16.14
2022-10-01T22:50:40.929Z,16.15
2022-10-01T22:53:28.592Z,16.17
2022-10-01T22:55:58.201Z,16.16
2022-10-01T22:58:45.720Z,16.17
2022-10-01T23:01:18.602Z,16.18
2022-10-01T23:03:55.744Z,16.18
2022-10-01T23:06:30.988Z,16.16
2022-10-01T23:09:05.147Z,16.16
2022-10-01T23:11:46.232Z,16.17
2022-10-01T23:14:26.299Z,16.19
2022-10-01T23:16:59.052Z,16.17
2022-10-01T23:19:35.613Z,16.16
2022-10-01T23:22:11.476Z,16.17
2022-10-01T23:24:57.161Z,16.15
2022-10-01T23:27:32.800Z,16.19
2022-10-01T23:30:11.081Z,16.19
2022-10-01T23:33:06.937Z,16.17
2022-10-01T23:35:45.638Z,16.19
2022-10-01T23:38:28.269Z,16.22
2022-10-01T23:41:05.432Z,16.23
2022-10-01T23:43:39.725Z,16.26
2022-10-01T23:46:11.413Z,16.28
2022-10-01T23:48:44.048Z,16.32
2022-10-01T23:51:20.004Z,16.35
2022-10-01T23:53:55.441Z,16.38
2022-10-01T23:56:46.631Z,16.39
2022-10-01T23:59:20.406Z,16.40
